sensor_id;sensor_type;location;lat;lon;timestamp;temperature;humidity
57892;DHT22;43708;48.828;9.166;2023-03-14T00:02:02;21.00;73.00
57892;DHT22;43708;48.828;9.166;2023-03-14T00:04:28;21.00;73.10
57892;DHT22;43708;48.828;9.166;2023-03-14T00:06:53;20.90;73.10
57892;DHT22;43708;48.828;9.166;2023-03-14T00:09:19;20.90;73.20
57892;DHT22;43708;48.828;9.166;2023-03-14T00:11:44;20.90;73.20
57892;DHT22;43708;48.828;9.166;2023-03-14T00:14:11;20.90;73.30
57892;DHT22;43708;48.828;9.166;2023-03-14T00:16:37;20.90;73.30
57892;DHT22;43708;48.828;9.166;2023-03-14T00:19:02;20.80;73.30
57892;DHT22;43708;48.828;9.166;2023-03-14T00:21:28;20.80;73.30
57892;DHT22;43708;48.828;9.166;2023-03-14T00:23:54;20.80;73.30
57892;DHT22;43708;48.828;9.166;2023-03-14T00:26:21;20.80;73.40
57892;DHT22;43708;48.828;9.166;2023-03-14T00:28:47;20.80;73.40
57892;DHT22;43708;48.828;9.166;2023-03-14T00:31:16;20.80;73.40
57892;DHT22;43708;48.828;9.166;2023-03-14T00:33:42;20.80;73.40
57892;DHT22;43708;48.828;9.166;2023-03-14T00:36:17;20.70;73.40
57892;DHT22;43708;48.828;9.166;2023-03-14T00:38:45;20.70;73.40
57892;DHT22;43708;48.828;9.166;2023-03-14T00:41:14;20.70;73.40
57892;DHT22;43708;48.828;9.166;2023-03-14T00:43:40;20.70;73.50
57892;DHT22;43708;48.828;9.166;2023-03-14T00:46:06;20.70;73.50
57892;DHT22;43708;48.828;9.166;2023-03-14T00:48:32;20.60;73.50
57892;DHT22;43708;48.828;9.166;2023-03-14T00:50:58;20.60;73.40
57892;DHT22;43708;48.828;9.166;2023-03-14T00:53:23;20.60;73.40
57892;DHT22;43708;48.828;9.166;2023-03-14T00:55:49;20.60;73.50
57892;DHT22;43708;48.828;9.166;2023-03-14T00:58:17;20.60;73.50
57892;DHT22;43708;48.828;9.166;2023-03-14T01:00:44;20.60;73.50
57892;DHT22;43708;48.828;9.166;2023-03-14T01:03:10;20.60;73.50
57892;DHT22;43708;48.828;9.166;2023-03-14T01:05:36;20.60;73.50
57892;DHT22;43708;48.828;9.166;2023-03-14T01:08:02;20.60;73.40
57892;DHT22;43708;48.828;9.166;2023-03-14T01:10:28;20.60;73.50
57892;DHT22;43708;48.828;9.166;2023-03-14T01:12:54;20.60;73.40
57892;DHT22;43708;48.828;9.166;2023-03-14T01:15:19;20.60;73.50
57892;DHT22;43708;48.828;9.166;2023-03-14T01:17:45;20.60;73.50
57892;DHT22;43708;48.828;9.166;2023-03-14T01:20:13;20.60;73.50
57892;DHT22;43708;48.828;9.166;2023-03-14T01:22:39;20.60;73.40
57892;DHT22;43708;48.828;9.166;2023-03-14T01:25:07;20.60;73.40
57892;DHT22;43708;48.828;9.166;2023-03-14T01:27:33;20.60;73.50
57892;DHT22;43708;48.828;9.166;2023-03-14T01:29:58;20.60;73.40
57892;DHT22;43708;48.828;9.166;2023-03-14T01:32:24;20.60;73.40
57892;DHT22;43708;48.828;9.166;2023-03-14T01:34:51;20.60;73.40
57892;DHT22;43708;48.828;9.166;2023-03-14T01:37:16;20.60;73.40
57892;DHT22;43708;48.828;9.166;2023-03-14T01:39:42;20.60;73.40
57892;DHT22;43708;48.828;9.166;2023-03-14T01:42:08;20.60;73.30
57892;DHT22;43708;48.828;9.166;2023-03-14T01:44:59;20.60;73.30
57892;DHT22;43708;48.828;9.166;2023-03-14T01:47:25;20.60;73.30
57892;DHT22;43708;48.828;9.166;2023-03-14T01:49:56;20.50;73.30
57892;DHT22;43708;48.828;9.166;2023-03-14T01:52:31;20.50;73.30
57892;DHT22;43708;48.828;9.166;2023-03-14T01:55:20;20.60;73.40
57892;DHT22;43708;48.828;9.166;2023-03-14T01:57:53;20.60;73.30
57892;DHT22;43708;48.828;9.166;2023-03-14T02:00:22;20.50;73.30
57892;DHT22;43708;48.828;9.166;2023-03-14T02:02:55;20.50;74.10
57892;DHT22;43708;48.828;9.166;2023-03-14T02:05:31;20.50;73.30
57892;DHT22;43708;48.828;9.166;2023-03-14T02:08:00;20.50;73.30
57892;DHT22;43708;48.828;9.166;2023-03-14T02:10:30;20.50;73.30
57892;DHT22;43708;48.828;9.166;2023-03-14T02:13:00;20.50;74.10
57892;DHT22;43708;48.828;9.166;2023-03-14T02:15:26;20.50;73.30
57892;DHT22;43708;48.828;9.166;2023-03-14T02:17:52;20.50;73.30
57892;DHT22;43708;48.828;9.166;2023-03-14T02:20:46;20.50;73.30
57892;DHT22;43708;48.828;9.166;2023-03-14T02:23:16;20.50;73.30
57892;DHT22;43708;48.828;9.166;2023-03-14T02:25:48;20.50;73.30
57892;DHT22;43708;48.828;9.166;2023-03-14T02:28:16;20.50;74.10
57892;DHT22;43708;48.828;9.166;2023-03-14T02:30:42;20.50;73.30
57892;DHT22;43708;48.828;9.166;2023-03-14T02:33:11;20.50;73.30
57892;DHT22;43708;48.828;9.166;2023-03-14T02:35:54;20.50;73.40
57892;DHT22;43708;48.828;9.166;2023-03-14T02:38:41;20.50;73.30
57892;DHT22;43708;48.828;9.166;2023-03-14T02:41:09;20.40;73.30
57892;DHT22;43708;48.828;9.166;2023-03-14T02:43:35;20.40;73.30
57892;DHT22;43708;48.828;9.166;2023-03-14T02:46:01;20.40;73.30
57892;DHT22;43708;48.828;9.166;2023-03-14T02:48:35;20.40;73.40
57892;DHT22;43708;48.828;9.166;2023-03-14T02:51:02;20.40;73.30
57892;DHT22;43708;48.828;9.166;2023-03-14T02:53:33;20.40;73.30
57892;DHT22;43708;48.828;9.166;2023-03-14T02:55:59;20.40;73.40
57892;DHT22;43708;48.828;9.166;2023-03-14T02:58:26;20.40;73.40
57892;DHT22;43708;48.828;9.166;2023-03-14T03:00:51;20.40;73.40
57892;DHT22;43708;48.828;9.166;2023-03-14T03:03:18;20.40;73.40
57892;DHT22;43708;48.828;9.166;2023-03-14T03:05:47;20.40;73.40
57892;DHT22;43708;48.828;9.166;2023-03-14T03:08:12;20.40;73.40
57892;DHT22;43708;48.828;9.166;2023-03-14T03:10:38;20.40;73.40
57892;DHT22;43708;48.828;9.166;2023-03-14T03:13:03;20.40;73.40
57892;DHT22;43708;48.828;9.166;2023-03-14T03:15:29;20.40;73.40
57892;DHT22;43708;48.828;9.166;2023-03-14T03:17:55;20.40;73.30
57892;DHT22;43708;48.828;9.166;2023-03-14T03:20:21;20.40;73.30
57892;DHT22;43708;48.828;9.166;2023-03-14T03:22:46;20.40;73.30
57892;DHT22;43708;48.828;9.166;2023-03-14T03:25:12;20.40;73.30
57892;DHT22;43708;48.828;9.166;2023-03-14T03:27:38;20.40;73.30
57892;DHT22;43708;48.828;9.166;2023-03-14T03:30:05;20.40;73.20
57892;DHT22;43708;48.828;9.166;2023-03-14T03:32:31;20.50;73.30
57892;DHT22;43708;48.828;9.166;2023-03-14T03:34:57;20.40;73.20
57892;DHT22;43708;48.828;9.166;2023-03-14T03:37:23;20.40;73.20
57892;DHT22;43708;48.828;9.166;2023-03-14T03:39:50;20.50;73.30
57892;DHT22;43708;48.828;9.166;2023-03-14T03:42:17;20.40;73.10
57892;DHT22;43708;48.828;9.166;2023-03-14T03:44:42;20.40;73.10
57892;DHT22;43708;48.828;9.166;2023-03-14T03:47:08;20.50;73.20
57892;DHT22;43708;48.828;9.166;2023-03-14T03:49:34;20.50;73.20
57892;DHT22;43708;48.828;9.166;2023-03-14T03:52:00;20.50;73.20
57892;DHT22;43708;48.828;9.166;2023-03-14T03:54:25;20.50;73.20
57892;DHT22;43708;48.828;9.166;2023-03-14T03:56:54;20.50;73.20
57892;DHT22;43708;48.828;9.166;2023-03-14T03:59:20;20.50;73.20
57892;DHT22;43708;48.828;9.166;2023-03-14T04:01:46;20.50;73.20
57892;DHT22;43708;48.828;9.166;2023-03-14T04:04:12;20.50;73.10
57892;DHT22;43708;48.828;9.166;2023-03-14T04:06:38;20.50;73.20
57892;DHT22;43708;48.828;9.166;2023-03-14T04:09:04;20.50;73.20
57892;DHT22;43708;48.828;9.166;2023-03-14T04:11:29;20.50;73.20
57892;DHT22;43708;48.828;9.166;2023-03-14T04:13:55;20.50;73.20
57892;DHT22;43708;48.828;9.166;2023-03-14T04:16:23;20.50;73.20
57892;DHT22;43708;48.828;9.166;2023-03-14T04:18:49;20.50;73.20
57892;DHT22;43708;48.828;9.166;2023-03-14T04:21:15;20.50;73.20
57892;DHT22;43708;48.828;9.166;2023-03-14T04:23:41;20.50;73.20
57892;DHT22;43708;48.828;9.166;2023-03-14T04:26:06;20.50;73.20
57892;DHT22;43708;48.828;9.166;2023-03-14T04:28:32;20.50;73.20
57892;DHT22;43708;48.828;9.166;2023-03-14T04:30:58;20.50;73.20
57892;DHT22;43708;48.828;9.166;2023-03-14T04:33:23;20.40;73.10
57892;DHT22;43708;48.828;9.166;2023-03-14T04:35:53;20.40;73.20
57892;DHT22;43708;48.828;9.166;2023-03-14T04:38:19;20.50;73.30
57892;DHT22;43708;48.828;9.166;2023-03-14T04:40:45;20.40;73.20
57892;DHT22;43708;48.828;9.166;2023-03-14T04:43:11;20.50;73.30
57892;DHT22;43708;48.828;9.166;2023-03-14T04:45:40;20.40;73.20
57892;DHT22;43708;48.828;9.166;2023-03-14T04:48:06;20.40;73.30
57892;DHT22;43708;48.828;9.166;2023-03-14T04:50:32;20.40;73.20
57892;DHT22;43708;48.828;9.166;2023-03-14T04:52:57;20.40;73.20
57892;DHT22;43708;48.828;9.166;2023-03-14T04:55:23;20.40;73.30
57892;DHT22;43708;48.828;9.166;2023-03-14T04:57:49;20.40;73.20
57892;DHT22;43708;48.828;9.166;2023-03-14T05:00:14;20.40;73.20
57892;DHT22;43708;48.828;9.166;2023-03-14T05:02:43;20.40;73.20
57892;DHT22;43708;48.828;9.166;2023-03-14T05:05:08;20.40;73.20
57892;DHT22;43708;48.828;9.166;2023-03-14T05:07:34;20.40;73.20
57892;DHT22;43708;48.828;9.166;2023-03-14T05:10:00;20.50;73.30
57892;DHT22;43708;48.828;9.166;2023-03-14T05:12:25;20.40;73.20
57892;DHT22;43708;48.828;9.166;2023-03-14T05:14:51;20.40;73.20
57892;DHT22;43708;48.828;9.166;2023-03-14T05:17:16;20.40;73.20
57892;DHT22;43708;48.828;9.166;2023-03-14T05:19:43;20.40;73.20
57892;DHT22;43708;48.828;9.166;2023-03-14T05:22:09;20.40;73.20
57892;DHT22;43708;48.828;9.166;2023-03-14T05:24:35;20.40;73.20
57892;DHT22;43708;48.828;9.166;2023-03-14T05:27:01;20.40;73.10
57892;DHT22;43708;48.828;9.166;2023-03-14T05:29:26;20.50;73.20
57892;DHT22;43708;48.828;9.166;2023-03-14T05:31:52;20.50;73.20
57892;DHT22;43708;48.828;9.166;2023-03-14T05:34:20;20.50;73.10
57892;DHT22;43708;48.828;9.166;2023-03-14T05:36:46;20.50;73.00
57892;DHT22;43708;48.828;9.166;2023-03-14T05:39:11;20.50;73.00
57892;DHT22;43708;48.828;9.166;2023-03-14T05:41:37;20.50;73.00
57892;DHT22;43708;48.828;9.166;2023-03-14T05:44:03;20.60;73.10
57892;DHT22;43708;48.828;9.166;2023-03-14T05:46:28;20.60;73.10
57892;DHT22;43708;48.828;9.166;2023-03-14T05:48:59;20.50;73.00
57892;DHT22;43708;48.828;9.166;2023-03-14T05:51:24;20.60;73.10
57892;DHT22;43708;48.828;9.166;2023-03-14T05:53:50;20.60;73.10
57892;DHT22;43708;48.828;9.166;2023-03-14T05:56:16;20.60;73.10
57892;DHT22;43708;48.828;9.166;2023-03-14T05:58:41;20.60;73.10
57892;DHT22;43708;48.828;9.166;2023-03-14T06:01:07;20.60;73.10
57892;DHT22;43708;48.828;9.166;2023-03-14T06:03:33;20.60;73.10
57892;DHT22;43708;48.828;9.166;2023-03-14T06:05:59;20.60;73.10
57892;DHT22;43708;48.828;9.166;2023-03-14T06:08:25;20.60;73.10
57892;DHT22;43708;48.828;9.166;2023-03-14T06:10:51;20.60;73.10
57892;DHT22;43708;48.828;9.166;2023-03-14T06:13:17;20.60;73.10
57892;DHT22;43708;48.828;9.166;2023-03-14T06:15:43;20.60;73.90
57892;DHT22;43708;48.828;9.166;2023-03-14T06:18:09;20.60;73.20
57892;DHT22;43708;48.828;9.166;2023-03-14T06:20:38;20.60;73.30
57892;DHT22;43708;48.828;9.166;2023-03-14T06:23:12;20.60;73.30
57892;DHT22;43708;48.828;9.166;2023-03-14T06:25:38;20.60;73.30
57892;DHT22;43708;48.828;9.166;2023-03-14T06:28:03;20.60;73.30
57892;DHT22;43708;48.828;9.166;2023-03-14T06:30:29;20.50;73.30
57892;DHT22;43708;48.828;9.166;2023-03-14T06:32:55;20.50;73.50
57892;DHT22;43708;48.828;9.166;2023-03-14T06:35:21;20.60;73.60
57892;DHT22;43708;48.828;9.166;2023-03-14T06:37:47;20.50;73.70
57892;DHT22;43708;48.828;9.166;2023-03-14T06:40:13;20.50;73.70
57892;DHT22;43708;48.828;9.166;2023-03-14T06:42:43;20.50;73.70
57892;DHT22;43708;48.828;9.166;2023-03-14T06:45:09;20.50;73.80
57892;DHT22;43708;48.828;9.166;2023-03-14T06:47:35;20.50;73.80
57892;DHT22;43708;48.828;9.166;2023-03-14T06:50:00;20.50;73.70
57892;DHT22;43708;48.828;9.166;2023-03-14T06:52:26;20.50;73.80
57892;DHT22;43708;48.828;9.166;2023-03-14T06:54:51;20.50;73.70
57892;DHT22;43708;48.828;9.166;2023-03-14T06:57:17;20.50;73.70
57892;DHT22;43708;48.828;9.166;2023-03-14T06:59:43;20.50;73.70
57892;DHT22;43708;48.828;9.166;2023-03-14T07:02:11;20.50;73.80
57892;DHT22;43708;48.828;9.166;2023-03-14T07:04:38;20.50;73.80
57892;DHT22;43708;48.828;9.166;2023-03-14T07:07:03;20.50;73.70
57892;DHT22;43708;48.828;9.166;2023-03-14T07:09:29;20.50;73.60
57892;DHT22;43708;48.828;9.166;2023-03-14T07:11:55;20.40;73.40
57892;DHT22;43708;48.828;9.166;2023-03-14T07:14:20;20.20;73.30
57892;DHT22;43708;48.828;9.166;2023-03-14T07:16:46;20.10;73.40
57892;DHT22;43708;48.828;9.166;2023-03-14T07:19:11;20.10;73.40
57892;DHT22;43708;48.828;9.166;2023-03-14T07:21:37;20.10;73.30
57892;DHT22;43708;48.828;9.166;2023-03-14T07:24:03;20.10;73.10
57892;DHT22;43708;48.828;9.166;2023-03-14T07:26:31;20.20;73.10
57892;DHT22;43708;48.828;9.166;2023-03-14T07:28:57;20.20;73.10
57892;DHT22;43708;48.828;9.166;2023-03-14T07:31:23;20.20;73.00
57892;DHT22;43708;48.828;9.166;2023-03-14T07:33:49;20.30;73.00
57892;DHT22;43708;48.828;9.166;2023-03-14T07:36:14;20.30;72.90
57892;DHT22;43708;48.828;9.166;2023-03-14T07:38:43;20.30;72.90
57892;DHT22;43708;48.828;9.166;2023-03-14T07:41:09;20.30;72.90
57892;DHT22;43708;48.828;9.166;2023-03-14T07:43:36;20.30;72.90
57892;DHT22;43708;48.828;9.166;2023-03-14T07:46:01;20.30;72.90
57892;DHT22;43708;48.828;9.166;2023-03-14T07:48:27;20.30;72.80
57892;DHT22;43708;48.828;9.166;2023-03-14T07:51:10;20.40;72.90
57892;DHT22;43708;48.828;9.166;2023-03-14T07:53:36;20.40;72.80
57892;DHT22;43708;48.828;9.166;2023-03-14T07:56:01;20.40;72.70
57892;DHT22;43708;48.828;9.166;2023-03-14T07:58:30;20.40;72.60
57892;DHT22;43708;48.828;9.166;2023-03-14T08:00:58;20.50;72.60
57892;DHT22;43708;48.828;9.166;2023-03-14T08:03:24;20.50;72.50
57892;DHT22;43708;48.828;9.166;2023-03-14T08:05:50;20.60;72.40
57892;DHT22;43708;48.828;9.166;2023-03-14T08:08:17;20.70;72.10
57892;DHT22;43708;48.828;9.166;2023-03-14T08:10:46;20.90;71.80
57892;DHT22;43708;48.828;9.166;2023-03-14T08:13:12;21.10;71.30
57892;DHT22;43708;48.828;9.166;2023-03-14T08:15:38;21.30;70.90
57892;DHT22;43708;48.828;9.166;2023-03-14T08:18:04;21.50;70.40
57892;DHT22;43708;48.828;9.166;2023-03-14T08:20:30;21.70;69.90
57892;DHT22;43708;48.828;9.166;2023-03-14T08:22:57;21.90;69.50
57892;DHT22;43708;48.828;9.166;2023-03-14T08:25:23;22.10;68.90
57892;DHT22;43708;48.828;9.166;2023-03-14T08:27:48;22.40;68.30
57892;DHT22;43708;48.828;9.166;2023-03-14T08:30:18;22.60;67.80
57892;DHT22;43708;48.828;9.166;2023-03-14T08:32:43;22.80;67.30
57892;DHT22;43708;48.828;9.166;2023-03-14T08:35:09;23.00;67.00
57892;DHT22;43708;48.828;9.166;2023-03-14T08:37:35;23.10;66.50
57892;DHT22;43708;48.828;9.166;2023-03-14T08:40:02;23.30;66.40
57892;DHT22;43708;48.828;9.166;2023-03-14T08:42:32;23.40;66.20
57892;DHT22;43708;48.828;9.166;2023-03-14T08:45:01;23.50;66.10
57892;DHT22;43708;48.828;9.166;2023-03-14T08:47:27;23.60;66.00
57892;DHT22;43708;48.828;9.166;2023-03-14T08:49:53;23.60;65.80
57892;DHT22;43708;48.828;9.166;2023-03-14T08:52:18;23.60;65.70
57892;DHT22;43708;48.828;9.166;2023-03-14T08:54:44;23.60;66.00
57892;DHT22;43708;48.828;9.166;2023-03-14T08:57:10;23.50;66.30
57892;DHT22;43708;48.828;9.166;2023-03-14T08:59:35;23.30;66.60
57892;DHT22;43708;48.828;9.166;2023-03-14T09:02:04;23.20;66.90
57892;DHT22;43708;48.828;9.166;2023-03-14T09:04:32;23.10;67.10
57892;DHT22;43708;48.828;9.166;2023-03-14T09:06:59;23.10;67.40
57892;DHT22;43708;48.828;9.166;2023-03-14T09:09:25;23.10;67.50
57892;DHT22;43708;48.828;9.166;2023-03-14T09:11:55;23.00;67.40
57892;DHT22;43708;48.828;9.166;2023-03-14T09:14:21;23.00;67.50
57892;DHT22;43708;48.828;9.166;2023-03-14T09:16:49;23.00;67.50
57892;DHT22;43708;48.828;9.166;2023-03-14T09:19:16;23.10;67.40
57892;DHT22;43708;48.828;9.166;2023-03-14T09:21:41;23.10;67.30
57892;DHT22;43708;48.828;9.166;2023-03-14T09:24:07;23.20;67.30
57892;DHT22;43708;48.828;9.166;2023-03-14T09:26:33;23.20;67.20
57892;DHT22;43708;48.828;9.166;2023-03-14T09:28:58;23.20;67.30
57892;DHT22;43708;48.828;9.166;2023-03-14T09:31:24;23.20;67.20
57892;DHT22;43708;48.828;9.166;2023-03-14T09:33:49;23.20;67.20
57892;DHT22;43708;48.828;9.166;2023-03-14T09:36:15;23.10;67.50
57892;DHT22;43708;48.828;9.166;2023-03-14T09:38:41;22.90;67.70
57892;DHT22;43708;48.828;9.166;2023-03-14T09:41:25;22.90;67.90
57892;DHT22;43708;48.828;9.166;2023-03-14T09:44:02;22.90;68.60
57892;DHT22;43708;48.828;9.166;2023-03-14T09:46:29;23.00;67.70
57892;DHT22;43708;48.828;9.166;2023-03-14T09:48:56;23.10;67.50
57892;DHT22;43708;48.828;9.166;2023-03-14T09:51:22;23.20;67.30
57892;DHT22;43708;48.828;9.166;2023-03-14T09:53:49;23.20;67.20
57892;DHT22;43708;48.828;9.166;2023-03-14T09:56:24;23.30;67.10
57892;DHT22;43708;48.828;9.166;2023-03-14T09:58:56;23.40;67.00
57892;DHT22;43708;48.828;9.166;2023-03-14T10:01:26;23.30;66.90
57892;DHT22;43708;48.828;9.166;2023-03-14T10:03:55;23.40;66.90
57892;DHT22;43708;48.828;9.166;2023-03-14T10:06:23;23.50;66.80
57892;DHT22;43708;48.828;9.166;2023-03-14T10:08:50;23.50;66.60
57892;DHT22;43708;48.828;9.166;2023-03-14T10:11:21;23.60;66.60
57892;DHT22;43708;48.828;9.166;2023-03-14T10:16:33;23.60;66.40
57892;DHT22;43708;48.828;9.166;2023-03-14T10:19:04;23.70;66.30
57892;DHT22;43708;48.828;9.166;2023-03-14T10:21:30;23.70;66.30
57892;DHT22;43708;48.828;9.166;2023-03-14T10:24:27;23.70;66.40
57892;DHT22;43708;48.828;9.166;2023-03-14T10:26:57;23.70;66.50
57892;DHT22;43708;48.828;9.166;2023-03-14T10:29:26;23.80;66.60
57892;DHT22;43708;48.828;9.166;2023-03-14T10:32:05;23.60;66.50
57892;DHT22;43708;48.828;9.166;2023-03-14T10:34:35;23.50;66.70
57892;DHT22;43708;48.828;9.166;2023-03-14T10:37:27;23.50;67.00
57892;DHT22;43708;48.828;9.166;2023-03-14T10:39:55;23.40;67.00
57892;DHT22;43708;48.828;9.166;2023-03-14T10:42:34;23.50;67.10
57892;DHT22;43708;48.828;9.166;2023-03-14T10:45:06;23.50;67.20
57892;DHT22;43708;48.828;9.166;2023-03-14T10:47:35;23.40;67.10
57892;DHT22;43708;48.828;9.166;2023-03-14T10:50:24;23.30;67.10
57892;DHT22;43708;48.828;9.166;2023-03-14T10:52:52;23.30;67.20
57892;DHT22;43708;48.828;9.166;2023-03-14T10:55:18;23.30;67.20
57892;DHT22;43708;48.828;9.166;2023-03-14T10:57:44;23.30;67.30
57892;DHT22;43708;48.828;9.166;2023-03-14T11:00:23;23.30;67.40
57892;DHT22;43708;48.828;9.166;2023-03-14T11:03:02;23.30;67.40
57892;DHT22;43708;48.828;9.166;2023-03-14T11:08:04;23.30;67.50
57892;DHT22;43708;48.828;9.166;2023-03-14T11:10:34;23.10;67.50
57892;DHT22;43708;48.828;9.166;2023-03-14T11:31:41;22.90;68.10
57892;DHT22;43708;48.828;9.166;2023-03-14T11:34:43;23.00;67.90
57892;DHT22;43708;48.828;9.166;2023-03-14T11:37:32;23.10;67.70
57892;DHT22;43708;48.828;9.166;2023-03-14T11:42:45;23.30;67.40
57892;DHT22;43708;48.828;9.166;2023-03-14T11:45:24;23.30;67.30
57892;DHT22;43708;48.828;9.166;2023-03-14T11:48:07;23.30;67.30
57892;DHT22;43708;48.828;9.166;2023-03-14T11:50:36;23.30;67.40
57892;DHT22;43708;48.828;9.166;2023-03-14T11:53:04;23.20;67.30
57892;DHT22;43708;48.828;9.166;2023-03-14T11:55:34;23.20;67.40
57892;DHT22;43708;48.828;9.166;2023-03-14T11:58:09;23.20;67.50
57892;DHT22;43708;48.828;9.166;2023-03-14T12:00:35;23.20;67.50
57892;DHT22;43708;48.828;9.166;2023-03-14T12:03:17;23.20;67.50
57892;DHT22;43708;48.828;9.166;2023-03-14T12:10:49;22.90;67.80
57892;DHT22;43708;48.828;9.166;2023-03-14T12:13:17;22.90;67.80
57892;DHT22;43708;48.828;9.166;2023-03-14T12:15:57;22.90;67.90
57892;DHT22;43708;48.828;9.166;2023-03-14T12:18:28;22.90;67.90
57892;DHT22;43708;48.828;9.166;2023-03-14T12:21:02;22.90;67.80
57892;DHT22;43708;48.828;9.166;2023-03-14T12:23:39;22.80;67.80
57892;DHT22;43708;48.828;9.166;2023-03-14T12:28:41;22.70;67.90
57892;DHT22;43708;48.828;9.166;2023-03-14T12:34:24;22.80;67.80
57892;DHT22;43708;48.828;9.166;2023-03-14T12:37:01;22.80;67.70
57892;DHT22;43708;48.828;9.166;2023-03-14T12:50:14;22.70;67.90
57892;DHT22;43708;48.828;9.166;2023-03-14T12:58:28;22.60;68.20
57892;DHT22;43708;48.828;9.166;2023-03-14T13:00:59;22.50;68.30
57892;DHT22;43708;48.828;9.166;2023-03-14T13:03:40;22.50;68.30
57892;DHT22;43708;48.828;9.166;2023-03-14T13:06:10;22.50;68.40
57892;DHT22;43708;48.828;9.166;2023-03-14T13:08:40;22.50;68.40
57892;DHT22;43708;48.828;9.166;2023-03-14T13:11:16;22.40;68.40
57892;DHT22;43708;48.828;9.166;2023-03-14T13:13:52;22.40;68.40
57892;DHT22;43708;48.828;9.166;2023-03-14T13:16:21;22.40;68.50
57892;DHT22;43708;48.828;9.166;2023-03-14T13:18:49;22.40;68.50
57892;DHT22;43708;48.828;9.166;2023-03-14T13:21:17;22.40;68.50
57892;DHT22;43708;48.828;9.166;2023-03-14T13:26:45;22.60;68.30
57892;DHT22;43708;48.828;9.166;2023-03-14T13:29:19;22.60;68.10
57892;DHT22;43708;48.828;9.166;2023-03-14T13:31:47;22.70;68.10
57892;DHT22;43708;48.828;9.166;2023-03-14T13:34:13;22.70;67.90
57892;DHT22;43708;48.828;9.166;2023-03-14T13:36:39;22.70;67.80
57892;DHT22;43708;48.828;9.166;2023-03-14T13:39:10;22.80;67.80
57892;DHT22;43708;48.828;9.166;2023-03-14T13:41:38;22.80;67.80
57892;DHT22;43708;48.828;9.166;2023-03-14T13:44:08;22.80;67.80
57892;DHT22;43708;48.828;9.166;2023-03-14T13:46:35;22.80;67.80
57892;DHT22;43708;48.828;9.166;2023-03-14T13:49:04;22.80;67.70
57892;DHT22;43708;48.828;9.166;2023-03-14T13:51:31;22.80;67.70
57892;DHT22;43708;48.828;9.166;2023-03-14T13:54:00;22.80;67.70
57892;DHT22;43708;48.828;9.166;2023-03-14T13:56:30;22.80;67.70
57892;DHT22;43708;48.828;9.166;2023-03-14T13:58:56;22.80;67.80
57892;DHT22;43708;48.828;9.166;2023-03-14T14:01:29;22.80;67.80
57892;DHT22;43708;48.828;9.166;2023-03-14T14:03:58;22.80;67.80
57892;DHT22;43708;48.828;9.166;2023-03-14T14:06:29;22.80;67.80
57892;DHT22;43708;48.828;9.166;2023-03-14T14:09:10;22.80;67.80
57892;DHT22;43708;48.828;9.166;2023-03-14T14:11:47;22.80;67.80
57892;DHT22;43708;48.828;9.166;2023-03-14T14:14:39;22.80;67.80
57892;DHT22;43708;48.828;9.166;2023-03-14T14:17:10;22.80;67.80
57892;DHT22;43708;48.828;9.166;2023-03-14T14:19:36;22.80;67.90
57892;DHT22;43708;48.828;9.166;2023-03-14T14:22:03;22.80;67.90
57892;DHT22;43708;48.828;9.166;2023-03-14T14:24:31;22.80;67.90
57892;DHT22;43708;48.828;9.166;2023-03-14T14:27:08;22.70;67.90
57892;DHT22;43708;48.828;9.166;2023-03-14T14:29:35;22.70;67.90
57892;DHT22;43708;48.828;9.166;2023-03-14T14:32:11;22.70;68.00
57892;DHT22;43708;48.828;9.166;2023-03-14T14:34:57;22.70;68.00
57892;DHT22;43708;48.828;9.166;2023-03-14T14:37:34;22.80;67.80
57892;DHT22;43708;48.828;9.166;2023-03-14T14:40:26;22.90;67.60
57892;DHT22;43708;48.828;9.166;2023-03-14T14:42:52;22.90;67.30
57892;DHT22;43708;48.828;9.166;2023-03-14T14:45:20;23.00;67.20
57892;DHT22;43708;48.828;9.166;2023-03-14T14:47:58;23.00;67.20
57892;DHT22;43708;48.828;9.166;2023-03-14T14:50:30;23.00;67.20
57892;DHT22;43708;48.828;9.166;2023-03-14T14:53:01;23.00;67.20
57892;DHT22;43708;48.828;9.166;2023-03-14T14:55:38;23.00;67.10
57892;DHT22;43708;48.828;9.166;2023-03-14T14:58:24;23.00;67.30
57892;DHT22;43708;48.828;9.166;2023-03-14T15:00:54;23.00;67.50
57892;DHT22;43708;48.828;9.166;2023-03-14T15:03:20;23.00;67.50
57892;DHT22;43708;48.828;9.166;2023-03-14T15:05:46;22.90;68.40
57892;DHT22;43708;48.828;9.166;2023-03-14T15:08:12;22.90;67.80
57892;DHT22;43708;48.828;9.166;2023-03-14T15:10:37;22.90;67.80
57892;DHT22;43708;48.828;9.166;2023-03-14T15:13:03;22.80;67.80
57892;DHT22;43708;48.828;9.166;2023-03-14T15:15:29;22.80;67.70
57892;DHT22;43708;48.828;9.166;2023-03-14T15:17:55;22.60;66.90
57892;DHT22;43708;48.828;9.166;2023-03-14T15:20:21;22.40;66.00
57892;DHT22;43708;48.828;9.166;2023-03-14T15:22:49;22.30;65.60
57892;DHT22;43708;48.828;9.166;2023-03-14T15:25:15;22.40;65.20
57892;DHT22;43708;48.828;9.166;2023-03-14T15:27:40;22.60;64.30
57892;DHT22;43708;48.828;9.166;2023-03-14T15:30:12;22.80;63.80
57892;DHT22;43708;48.828;9.166;2023-03-14T15:32:38;23.10;63.10
57892;DHT22;43708;48.828;9.166;2023-03-14T15:35:04;23.30;62.60
57892;DHT22;43708;48.828;9.166;2023-03-14T15:37:30;23.50;62.10
57892;DHT22;43708;48.828;9.166;2023-03-14T15:39:56;23.70;61.80
57892;DHT22;43708;48.828;9.166;2023-03-14T15:42:23;23.80;61.60
57892;DHT22;43708;48.828;9.166;2023-03-14T15:44:49;23.90;61.30
57892;DHT22;43708;48.828;9.166;2023-03-14T15:47:14;24.00;61.20
57892;DHT22;43708;48.828;9.166;2023-03-14T15:49:40;24.20;61.40
57892;DHT22;43708;48.828;9.166;2023-03-14T15:52:06;24.20;61.30
57892;DHT22;43708;48.828;9.166;2023-03-14T15:54:33;24.20;61.50
57892;DHT22;43708;48.828;9.166;2023-03-14T15:56:59;24.20;61.60
57892;DHT22;43708;48.828;9.166;2023-03-14T15:59:25;24.20;62.00
57892;DHT22;43708;48.828;9.166;2023-03-14T16:01:51;24.20;62.10
57892;DHT22;43708;48.828;9.166;2023-03-14T16:04:17;24.20;62.20
57892;DHT22;43708;48.828;9.166;2023-03-14T16:06:43;24.20;62.20
57892;DHT22;43708;48.828;9.166;2023-03-14T16:09:10;24.30;62.30
57892;DHT22;43708;48.828;9.166;2023-03-14T16:11:36;24.30;62.40
57892;DHT22;43708;48.828;9.166;2023-03-14T16:14:02;24.30;62.50
57892;DHT22;43708;48.828;9.166;2023-03-14T16:16:27;24.30;62.60
57892;DHT22;43708;48.828;9.166;2023-03-14T16:18:53;24.30;62.70
57892;DHT22;43708;48.828;9.166;2023-03-14T16:21:20;24.30;63.00
57892;DHT22;43708;48.828;9.166;2023-03-14T16:23:46;24.30;63.20
57892;DHT22;43708;48.828;9.166;2023-03-14T16:26:15;24.20;63.40
57892;DHT22;43708;48.828;9.166;2023-03-14T16:28:42;24.10;63.60
57892;DHT22;43708;48.828;9.166;2023-03-14T16:31:10;24.10;63.90
57892;DHT22;43708;48.828;9.166;2023-03-14T16:33:37;24.00;64.10
57892;DHT22;43708;48.828;9.166;2023-03-14T16:36:05;23.90;64.30